MSC Madhu B — CQIP6 — position and weather

sailwx.info

Track history (hours):
 
Tides and Currents Weather Stations Pressure Air Temp Water Temp Dewpoint Dewpoint Depression Visibility Wind Speed Wind Dir Waves Ship Positions

MSC Madhu B

Last reported at 2018-Jun-15 16:21 UTC. Time now 2018-Jun-24 10:51 UTC.
Position N 09°11' W 079°52'.
Warning: this ship's position is 8 days out of date.

Length 330 m; draft 13.5 m.

Type: Ship (hazmat cat D). MMSI: 255806031.

Date/timePositionNaut miles runAvg speedWind from/ knotsBaromVisibWave heightAir tempDewpointWater temp
2018-Jun-15 16:21N 09°11' W 079°52'4 8.7
2018-Jun-15 15:56N 09°13' W 079°55'1 1.4
2018-Jun-15 15:29N 09°13' W 079°56'2 3.4
2018-Jun-15 14:48N 09°15' W 079°55'0 1.4
2018-Jun-15 14:30N 09°16' W 079°55'0 0.3
2018-Jun-15 14:00N 09°16' W 079°55'0 0.5
2018-Jun-15 13:30N 09°16' W 079°55'0 0.0
2018-Jun-15 13:00N 09°16' W 079°55'0 0.5
2018-Jun-15 12:29N 09°17' W 079°55'0 0.0
2018-Jun-15 12:00N 09°17' W 079°55'0 0.7
2018-Jun-15 11:30N 09°17' W 079°55'1 1.6
2018-Jun-15 11:00N 09°18' W 079°55'3 5.6
2018-Jun-15 10:30N 09°20' W 079°55'3 6.0
2018-Jun-15 09:59N 09°24' W 079°55'5 9.4
2018-Jun-15 09:30N 09°28' W 079°55'2 4.4
2018-Jun-15 09:00N 09°30' W 079°54'0 0.6
2018-Jun-15 08:29N 09°30' W 079°55'0 0.6
2018-Jun-15 08:00N 09°30' W 079°55'0 0.6
2018-Jun-15 07:30N 09°30' W 079°55'0 0.4
2018-Jun-15 07:00N 09°30' W 079°56'1 1.0
2018-Jun-15 06:17N 09°30' W 079°56'1 3.5
2018-Jun-15 06:00N 09°29' W 079°56'5 9.8
2018-Jun-15 05:30N 09°24' W 079°55'3 5.7
2018-Jun-15 05:00N 09°21' W 079°55'1 1.0
2018-Jun-15 04:30N 09°21' W 079°55'0 0.3
2018-Jun-15 04:00N 09°21' W 079°54'0 0.0
2018-Jun-15 03:27N 09°21' W 079°54'0 0.0
2018-Jun-15 03:00N 09°21' W 079°54'0 0.0
2018-Jun-15 02:30N 09°21' W 079°54'0 0.0
2018-Jun-15 02:00N 09°21' W 079°54'0 0.0
2018-Jun-15 01:30N 09°21' W 079°54'0 0.0
2018-Jun-15 01:00N 09°21' W 079°54'0 0.0
2018-Jun-15 00:30N 09°21' W 079°54'0 0.0
2018-Jun-15 00:00N 09°21' W 079°54'0 0.0
2018-Jun-14 23:30N 09°21' W 079°54'0 0.0
2018-Jun-14 23:00N 09°21' W 079°54'0 0.0
2018-Jun-14 22:30N 09°21' W 079°54'0 0.0
2018-Jun-14 22:00N 09°21' W 079°54'0 0.0
2018-Jun-14 21:30N 09°21' W 079°54'0 0.0
2018-Jun-14 21:00N 09°21' W 079°54'0 0.0
2018-Jun-14 20:30N 09°21' W 079°54'0 0.0
2018-Jun-14 20:00N 09°21' W 079°54'0 0.0
2018-Jun-14 19:30N 09°21' W 079°54'0 0.0
2018-Jun-14 19:00N 09°21' W 079°54'0 0.1
2018-Jun-14 18:30N 09°21' W 079°54'1 1.7
2018-Jun-14 18:00N 09°22' W 079°55'4 8.2
2018-Jun-14 17:30N 09°26' W 079°55'4 7.5
2018-Jun-14 17:00N 09°29' W 079°56'0 0.9
2018-Jun-14 16:30N 09°30' W 079°55'0 0.9
2018-Jun-14 16:00N 09°29' W 079°55'1 2.4
2018-Jun-14 15:30N 09°30' W 079°56'1 1.0
2018-Jun-14 14:59N 09°30' W 079°56'0 0.9
2018-Jun-14 14:30N 09°30' W 079°56'0 0.8
2018-Jun-14 14:00N 09°30' W 079°55'0 0.8
2018-Jun-14 13:30N 09°31' W 079°55'0 0.7
2018-Jun-14 13:00N 09°31' W 079°55'0 0.8
2018-Jun-14 12:30N 09°31' W 079°54'0 0.9
2018-Jun-14 11:59N 09°31' W 079°54'0 0.2
2018-Jun-14 11:29N 09°31' W 079°54'0 0.4
2018-Jun-14 11:00N 09°31' W 079°54'1 1.4
2018-Jun-14 10:29N 09°31' W 079°53'5 9.5
2018-Jun-14 10:00N 09°36' W 079°52'3 6.0
2018-Jun-14 09:28N 09°39' W 079°51'812.4
2018-Jun-14 08:47N 09°46' W 079°47'23615.8
2018-Jun-13 17:53N 10°17' W 075°49'616.3
2018-Jun-13 17:30N 10°18' W 075°43'714.3
2018-Jun-13 17:00N 10°19' W 075°36'5 9.2
2018-Jun-13 16:30N 10°20' W 075°31'4 7.4
2018-Jun-13 15:59N 10°24' W 075°32'0 0.5
2018-Jun-13 15:30N 10°24' W 075°32'0 0.0
2018-Jun-13 14:55N 10°24' W 075°32'0 0.0
2018-Jun-13 14:25N 10°24' W 075°32'0 0.0
2018-Jun-13 13:49N 10°24' W 075°32'0 0.0
2018-Jun-13 13:25N 10°24' W 075°32'0 0.0
2018-Jun-13 13:00N 10°24' W 075°32'0 0.0
2018-Jun-13 12:30N 10°24' W 075°32'0 0.0
2018-Jun-13 11:58N 10°24' W 075°32'0 0.0
2018-Jun-13 11:30N 10°24' W 075°32'0 0.0
2018-Jun-13 11:01N 10°24' W 075°32'0 0.0
2018-Jun-13 10:31N 10°24' W 075°32'0 0.0
2018-Jun-13 10:01N 10°24' W 075°32'0 0.0
2018-Jun-13 09:31N 10°24' W 075°32'0 0.0
2018-Jun-13 09:01N 10°24' W 075°32'0 0.0
2018-Jun-13 08:31N 10°24' W 075°32'0 0.0
2018-Jun-13 08:00N 10°24' W 075°32'0 0.0
2018-Jun-13 07:30N 10°24' W 075°32'0 0.3
2018-Jun-13 07:00N 10°24' W 075°32'1 2.2
2018-Jun-13 06:30N 10°23' W 075°32'4 6.7
2018-Jun-13 05:58N 10°20' W 075°33'510.0
2018-Jun-13 05:30N 10°19' W 075°37'4 7.1
2018-Jun-13 04:59N 10°20' W 075°41'511.4
2018-Jun-13 04:30N 10°23' W 075°46'3 6.0
2018-Jun-13 04:00N 10°24' W 075°49'1 1.8
2018-Jun-13 03:29N 10°23' W 075°48'3 6.9
2018-Jun-13 02:59N 10°23' W 075°45'815.9
2018-Jun-13 02:31N 10°30' W 075°43'  
Track history (hours):
 
Tides and Currents Weather Stations Pressure Air Temp Water Temp Dewpoint Dewpoint Depression Visibility Wind Speed Wind Dir Waves Ship Positions

MSC Madhu B

Last reported at 2018-Jun-15 16:21 UTC. Time now 2018-Jun-24 10:51 UTC.
Position N 09°11' W 079°52'.
Warning: this ship's position is 8 days out of date.

Length 330 m; draft 13.5 m.

Type: Ship (hazmat cat D). MMSI: 255806031.

Date/timePositionNaut miles runAvg speedWind from/ knotsBaromVisibWave heightAir tempDewpointWater temp
2018-Jun-15 16:21N 09°11' W 079°52'4 8.7
2018-Jun-15 15:56N 09°13' W 079°55'1 1.4
2018-Jun-15 15:29N 09°13' W 079°56'2 3.4
2018-Jun-15 14:48N 09°15' W 079°55'0 1.4
2018-Jun-15 14:30N 09°16' W 079°55'0 0.3
2018-Jun-15 14:00N 09°16' W 079°55'0 0.5
2018-Jun-15 13:30N 09°16' W 079°55'0 0.0
2018-Jun-15 13:00N 09°16' W 079°55'0 0.5
2018-Jun-15 12:29N 09°17' W 079°55'0 0.0
2018-Jun-15 12:00N 09°17' W 079°55'0 0.7
2018-Jun-15 11:30N 09°17' W 079°55'1 1.6
2018-Jun-15 11:00N 09°18' W 079°55'3 5.6
2018-Jun-15 10:30N 09°20' W 079°55'3 6.0
2018-Jun-15 09:59N 09°24' W 079°55'5 9.4
2018-Jun-15 09:30N 09°28' W 079°55'2 4.4
2018-Jun-15 09:00N 09°30' W 079°54'0 0.6
2018-Jun-15 08:29N 09°30' W 079°55'0 0.6
2018-Jun-15 08:00N 09°30' W 079°55'0 0.6
2018-Jun-15 07:30N 09°30' W 079°55'0 0.4
2018-Jun-15 07:00N 09°30' W 079°56'1 1.0
2018-Jun-15 06:17N 09°30' W 079°56'1 3.5
2018-Jun-15 06:00N 09°29' W 079°56'5 9.8
2018-Jun-15 05:30N 09°24' W 079°55'3 5.7
2018-Jun-15 05:00N 09°21' W 079°55'1 1.0
2018-Jun-15 04:30N 09°21' W 079°55'0 0.3
2018-Jun-15 04:00N 09°21' W 079°54'0 0.0
2018-Jun-15 03:27N 09°21' W 079°54'0 0.0
2018-Jun-15 03:00N 09°21' W 079°54'0 0.0
2018-Jun-15 02:30N 09°21' W 079°54'0 0.0
2018-Jun-15 02:00N 09°21' W 079°54'0 0.0
2018-Jun-15 01:30N 09°21' W 079°54'0 0.0
2018-Jun-15 01:00N 09°21' W 079°54'0 0.0
2018-Jun-15 00:30N 09°21' W 079°54'0 0.0
2018-Jun-15 00:00N 09°21' W 079°54'0 0.0
2018-Jun-14 23:30N 09°21' W 079°54'0 0.0
2018-Jun-14 23:00N 09°21' W 079°54'0 0.0
2018-Jun-14 22:30N 09°21' W 079°54'0 0.0
2018-Jun-14 22:00N 09°21' W 079°54'0 0.0
2018-Jun-14 21:30N 09°21' W 079°54'0 0.0
2018-Jun-14 21:00N 09°21' W 079°54'0 0.0
2018-Jun-14 20:30N 09°21' W 079°54'0 0.0
2018-Jun-14 20:00N 09°21' W 079°54'0 0.0
2018-Jun-14 19:30N 09°21' W 079°54'0 0.0
2018-Jun-14 19:00N 09°21' W 079°54'0 0.1
2018-Jun-14 18:30N 09°21' W 079°54'1 1.7
2018-Jun-14 18:00N 09°22' W 079°55'4 8.2
2018-Jun-14 17:30N 09°26' W 079°55'4 7.5
2018-Jun-14 17:00N 09°29' W 079°56'0 0.9
2018-Jun-14 16:30N 09°30' W 079°55'0 0.9
2018-Jun-14 16:00N 09°29' W 079°55'1 2.4
2018-Jun-14 15:30N 09°30' W 079°56'1 1.0
2018-Jun-14 14:59N 09°30' W 079°56'0 0.9
2018-Jun-14 14:30N 09°30' W 079°56'0 0.8
2018-Jun-14 14:00N 09°30' W 079°55'0 0.8
2018-Jun-14 13:30N 09°31' W 079°55'0 0.7
2018-Jun-14 13:00N 09°31' W 079°55'0 0.8
2018-Jun-14 12:30N 09°31' W 079°54'0 0.9
2018-Jun-14 11:59N 09°31' W 079°54'0 0.2
2018-Jun-14 11:29N 09°31' W 079°54'0 0.4
2018-Jun-14 11:00N 09°31' W 079°54'1 1.4
2018-Jun-14 10:29N 09°31' W 079°53'5 9.5
2018-Jun-14 10:00N 09°36' W 079°52'3 6.0
2018-Jun-14 09:28N 09°39' W 079°51'812.4
2018-Jun-14 08:47N 09°46' W 079°47'23615.8
2018-Jun-13 17:53N 10°17' W 075°49'616.3
2018-Jun-13 17:30N 10°18' W 075°43'714.3
2018-Jun-13 17:00N 10°19' W 075°36'5 9.2
2018-Jun-13 16:30N 10°20' W 075°31'4 7.4
2018-Jun-13 15:59N 10°24' W 075°32'0 0.5
2018-Jun-13 15:30N 10°24' W 075°32'0 0.0
2018-Jun-13 14:55N 10°24' W 075°32'0 0.0
2018-Jun-13 14:25N 10°24' W 075°32'0 0.0
2018-Jun-13 13:49N 10°24' W 075°32'0 0.0
2018-Jun-13 13:25N 10°24' W 075°32'0 0.0
2018-Jun-13 13:00N 10°24' W 075°32'0 0.0
2018-Jun-13 12:30N 10°24' W 075°32'0 0.0
2018-Jun-13 11:58N 10°24' W 075°32'0 0.0
2018-Jun-13 11:30N 10°24' W 075°32'0 0.0
2018-Jun-13 11:01N 10°24' W 075°32'0 0.0
2018-Jun-13 10:31N 10°24' W 075°32'0 0.0
2018-Jun-13 10:01N 10°24' W 075°32'0 0.0
2018-Jun-13 09:31N 10°24' W 075°32'0 0.0
2018-Jun-13 09:01N 10°24' W 075°32'0 0.0
2018-Jun-13 08:31N 10°24' W 075°32'0 0.0
2018-Jun-13 08:00N 10°24' W 075°32'0 0.0
2018-Jun-13 07:30N 10°24' W 075°32'0 0.3
2018-Jun-13 07:00N 10°24' W 075°32'1 2.2
2018-Jun-13 06:30N 10°23' W 075°32'4 6.7
2018-Jun-13 05:58N 10°20' W 075°33'510.0
2018-Jun-13 05:30N 10°19' W 075°37'4 7.1
2018-Jun-13 04:59N 10°20' W 075°41'511.4
2018-Jun-13 04:30N 10°23' W 075°46'3 6.0
2018-Jun-13 04:00N 10°24' W 075°49'1 1.8
2018-Jun-13 03:29N 10°23' W 075°48'3 6.9
2018-Jun-13 02:59N 10°23' W 075°45'815.9
2018-Jun-13 02:31N 10°30' W 075°43'  

Dump ship's entire track history